Terminal Aerodrome Forecast
Issued by NWS

Home | Current Version | Previous Version | Graphics & Text | Print | Product List | Glossary On
Versions: 1 2 3 4 5 6 7 8 9 10 11 12 13 14 15
000
FTUS43 KGRB 211100
TAFCWA
TAF
KCWA 211120Z 2112/2212 17005KT P6SM BKN035
      TEMPO 2112/2113 4SM BR
     FM211400 20010G18KT P6SM SCT040 SCT090
     FM212300 18008KT P6SM SCT045
     FM220600 17005KT P6SM SCT070 SCT250 WS015/21030KT=

USA.gov is the U.S. government's official web portal to all federal, state and local government web resources and services.